Time;durP1;ratioP1;P1;durP2;ratioP2;P2;SDS_P1;SDS_P2;PMS_P1;PMS_P2;Temp;Humidity;BMP_temperature;BMP_pressure;BME280_temperature;BME280_humidity;BME280_pressure;Samples;Min_cycle;Max_cycle;Signal;HPM_P1;HPM_P2
2023/01/23 00:01:24;;;;;;;;;;;0.20;99.90;;;;;;5122398;28;19920;-69
2023/01/23 00:03:50;;;;;;;;;;;0.20;99.90;;;;;;5113139;28;20162;-69
2023/01/23 00:06:17;;;;;;;;;;;0.20;99.90;;;;;;5102966;28;19987;-69
2023/01/23 00:08:45;;;;;;;;;;;0.20;99.90;;;;;;5116820;28;19924;-69
2023/01/23 00:11:12;;;;;;;;;;;0.20;99.90;;;;;;5124072;28;19919;-69
2023/01/23 00:13:39;;;;;;;;;;;0.20;99.90;;;;;;5123593;28;19926;-69
2023/01/23 00:16:06;;;;;;;;;;;0.20;99.90;;;;;;5122732;28;19919;-71
2023/01/23 00:18:34;;;;;;;;;;;0.20;99.90;;;;;;5103353;28;20092;-69
2023/01/23 00:21:03;;;;;;;;;;;0.20;99.90;;;;;;5103511;28;19990;-70
2023/01/23 00:23:30;;;;;;;;;;;0.30;99.90;;;;;;5103354;28;19987;-69
2023/01/23 00:26:01;;;;;;;;;;;0.30;99.90;;;;;;5102868;28;19947;-69
2023/01/23 00:28:27;;;;;;;;;;;0.30;99.90;;;;;;5103417;28;19927;-69
2023/01/23 00:30:54;;;;;;;;;;;0.30;99.90;;;;;;5103218;28;19947;-69
2023/01/23 00:33:21;;;;;;;;;;;0.20;99.90;;;;;;5119525;28;19979;-68
2023/01/23 00:35:49;;;;;;;;;;;0.30;99.90;;;;;;5123435;28;19962;-69
2023/01/23 00:38:15;;;;;;;;;;;0.20;99.90;;;;;;5123086;28;19919;-69
2023/01/23 00:40:43;;;;;;;;;;;0.20;99.90;;;;;;5123718;28;19919;-69
2023/01/23 00:43:09;;;;;;;;;;;0.20;99.90;;;;;;5124557;28;20209;-69
2023/01/23 00:45:36;;;;;;;;;;;0.20;99.90;;;;;;5127027;28;19926;-69
2023/01/23 00:48:03;;;;;;;;;;;0.30;99.90;;;;;;5126428;28;19982;-69
2023/01/23 00:50:30;;;;;;;;;;;0.30;99.90;;;;;;5126802;28;19983;-69
2023/01/23 00:52:58;;;;;;;;;;;0.30;99.90;;;;;;5126930;28;19926;-69
2023/01/23 00:55:24;;;;;;;;;;;0.20;99.90;;;;;;5126731;28;19928;-68
2023/01/23 00:57:51;;;;;;;;;;;0.20;99.90;;;;;;5126431;28;19920;-69
2023/01/23 01:00:18;;;;;;;;;;;0.20;99.90;;;;;;5126725;28;19982;-69
2023/01/23 01:02:44;;;;;;;;;;;0.20;99.90;;;;;;5124602;28;20302;-69
2023/01/23 01:05:11;;;;;;;;;;;0.20;99.90;;;;;;5112352;28;19926;-69
2023/01/23 01:07:38;;;;;;;;;;;0.10;99.90;;;;;;5111706;28;19975;-69
2023/01/23 01:10:06;;;;;;;;;;;0.10;99.90;;;;;;5126964;28;19958;-69
2023/01/23 01:12:33;;;;;;;;;;;0.10;99.90;;;;;;5126765;28;19920;-69
2023/01/23 01:15:00;;;;;;;;;;;0.20;99.90;;;;;;5122312;28;19927;-69
2023/01/23 01:17:26;;;;;;;;;;;0.20;99.90;;;;;;5105393;28;19956;-69
2023/01/23 01:19:53;;;;;;;;;;;0.20;99.90;;;;;;5106084;28;19963;-69
2023/01/23 01:22:19;;;;;;;;;;;0.20;99.90;;;;;;5121357;28;19998;-69
2023/01/23 01:24:46;;;;;;;;;;;0.20;99.90;;;;;;5126587;28;19955;-69
2023/01/23 01:27:14;;;;;;;;;;;0.20;99.90;;;;;;5125952;28;19926;-69
2023/01/23 01:29:41;;;;;;;;;;;0.20;99.90;;;;;;5126568;28;19962;-69
2023/01/23 01:32:08;;;;;;;;;;;0.20;99.90;;;;;;5123677;28;19955;-69
2023/01/23 01:34:34;;;;;;;;;;;0.20;99.90;;;;;;5105672;28;19920;-69
2023/01/23 01:37:01;;;;;;;;;;;0.20;99.90;;;;;;5106439;28;19955;-69
2023/01/23 01:39:28;;;;;;;;;;;0.20;99.90;;;;;;5126187;28;19983;-69
2023/01/23 01:41:54;;;;;;;;;;;0.20;99.90;;;;;;5126148;28;20115;-69
2023/01/23 01:44:23;;;;;;;;;;;0.20;99.90;;;;;;5125945;28;19920;-69
2023/01/23 01:46:50;;;;;;;;;;;0.20;99.90;;;;;;5125452;28;19919;-68
2023/01/23 01:49:18;;;;;;;;;;;0.20;99.90;;;;;;5105412;28;20267;-69
2023/01/23 01:51:49;;;;;;;;;;;0.20;99.90;;;;;;5115092;28;19919;-69
2023/01/23 01:54:18;;;;;;;;;;;0.10;99.90;;;;;;5125566;28;19957;-69
2023/01/23 01:56:49;;;;;;;;;;;0.20;99.90;;;;;;5124919;28;19924;-69
2023/01/23 01:59:16;;;;;;;;;;;0.20;99.90;;;;;;5105249;28;19920;-69
2023/01/23 02:01:46;;;;;;;;;;;0.20;99.90;;;;;;5109332;28;19920;-70
2023/01/23 02:04:14;;;;;;;;;;;0.20;99.90;;;;;;5125692;28;20107;-69
2023/01/23 02:06:41;;;;;;;;;;;0.20;99.90;;;;;;5124974;28;19954;-69
2023/01/23 02:09:10;;;;;;;;;;;0.20;99.90;;;;;;5125773;28;19951;-69
2023/01/23 02:11:37;;;;;;;;;;;0.20;99.90;;;;;;5125469;28;19947;-68
2023/01/23 02:14:03;;;;;;;;;;;0.20;99.90;;;;;;5125460;28;19920;-69
2023/01/23 02:16:32;;;;;;;;;;;0.20;99.90;;;;;;5124618;28;19986;-69
2023/01/23 02:19:01;;;;;;;;;;;0.20;99.90;;;;;;5125189;28;20150;-69
2023/01/23 02:21:28;;;;;;;;;;;0.30;99.90;;;;;;5117886;28;19927;-69
2023/01/23 02:24:12;;;;;;;;;;;0.20;99.90;;;;;;5122192;28;20119;-69
2023/01/23 02:26:42;;;;;;;;;;;0.20;99.90;;;;;;5124801;28;19920;-69
2023/01/23 02:29:09;;;;;;;;;;;0.10;99.90;;;;;;5114099;28;19952;-69
2023/01/23 02:31:36;;;;;;;;;;;0.10;99.90;;;;;;5104762;28;19962;-69
2023/01/23 02:34:03;;;;;;;;;;;0.10;99.90;;;;;;5104617;28;19924;-69
2023/01/23 02:36:31;;;;;;;;;;;0.10;99.90;;;;;;5103849;28;20280;-69
2023/01/23 02:39:01;;;;;;;;;;;0.10;99.90;;;;;;5111326;28;20123;-69
2023/01/23 02:41:28;;;;;;;;;;;0.10;99.90;;;;;;5124986;28;19974;-69
2023/01/23 02:43:59;;;;;;;;;;;0.10;99.90;;;;;;5125001;28;19920;-69
2023/01/23 02:46:26;;;;;;;;;;;0.10;99.90;;;;;;5124270;28;19938;-69
2023/01/23 02:48:52;;;;;;;;;;;0.10;99.90;;;;;;5125009;28;19991;-69
2023/01/23 02:51:21;;;;;;;;;;;0.20;99.90;;;;;;5119434;28;19954;-69
2023/01/23 02:53:47;;;;;;;;;;;0.10;99.90;;;;;;5104450;28;19957;-69
2023/01/23 02:56:14;;;;;;;;;;;0.20;99.90;;;;;;5105443;28;19920;-69
2023/01/23 03:01:27;;;;;;;;;;;0.20;99.90;;;;;;5124517;28;20002;-69
2023/01/23 03:03:55;;;;;;;;;;;0.20;99.90;;;;;;5124479;28;19923;-69
2023/01/23 03:06:22;;;;;;;;;;;0.20;99.90;;;;;;5114938;28;19920;-69
2023/01/23 03:08:49;;;;;;;;;;;0.20;99.90;;;;;;5124733;28;19919;-69
2023/01/23 03:11:16;;;;;;;;;;;0.20;99.90;;;;;;5124615;28;19955;-69
2023/01/23 03:13:43;;;;;;;;;;;0.30;99.90;;;;;;5108264;28;19952;-70
2023/01/23 03:16:09;;;;;;;;;;;0.30;99.90;;;;;;5103182;28;19920;-69
2023/01/23 03:18:37;;;;;;;;;;;0.20;99.90;;;;;;5113101;28;20185;-69
2023/01/23 03:21:05;;;;;;;;;;;0.20;99.90;;;;;;5103541;28;19920;-69
2023/01/23 03:23:31;;;;;;;;;;;0.20;99.90;;;;;;5103842;28;20123;-69
2023/01/23 03:25:58;;;;;;;;;;;0.20;99.90;;;;;;5103393;28;19990;-69
2023/01/23 03:31:10;;;;;;;;;;;0.20;99.90;;;;;;5115614;28;20267;-70
2023/01/23 03:33:41;;;;;;;;;;;0.20;99.90;;;;;;5124302;28;19919;-69
2023/01/23 03:36:08;;;;;;;;;;;0.20;99.90;;;;;;5123235;28;19921;-68
2023/01/23 03:38:35;;;;;;;;;;;0.20;99.90;;;;;;5124011;28;20006;-69
2023/01/23 03:43:46;;;;;;;;;;;0.20;99.90;;;;;;5124227;28;19927;-69
2023/01/23 03:46:12;;;;;;;;;;;0.20;99.90;;;;;;5123436;28;19955;-69
2023/01/23 03:48:40;;;;;;;;;;;0.20;99.90;;;;;;5124256;28;19982;-69
2023/01/23 03:51:07;;;;;;;;;;;0.10;99.90;;;;;;5123583;28;19920;-69
2023/01/23 03:53:34;;;;;;;;;;;0.10;99.90;;;;;;5124205;28;19975;-69
2023/01/23 03:56:00;;;;;;;;;;;0.20;99.90;;;;;;5123358;28;19983;-69
2023/01/23 03:58:27;;;;;;;;;;;0.20;99.90;;;;;;5124031;28;19983;-69
2023/01/23 04:00:54;;;;;;;;;;;0.20;99.90;;;;;;5124206;28;19986;-69
2023/01/23 04:03:20;;;;;;;;;;;0.20;99.90;;;;;;5123553;28;19926;-69
2023/01/23 04:05:48;;;;;;;;;;;0.20;99.90;;;;;;5123369;28;19990;-69
2023/01/23 04:08:15;;;;;;;;;;;0.20;99.90;;;;;;5123436;28;19983;-69
2023/01/23 04:10:41;;;;;;;;;;;0.30;99.90;;;;;;5124093;28;19947;-69
2023/01/23 04:13:08;;;;;;;;;;;0.20;99.90;;;;;;5123906;28;20139;-69
2023/01/23 04:15:35;;;;;;;;;;;0.30;99.90;;;;;;5123967;28;19992;-72
2023/01/23 04:18:01;;;;;;;;;;;0.20;99.90;;;;;;5124205;28;19986;-69
2023/01/23 04:20:28;;;;;;;;;;;0.20;99.90;;;;;;5127578;28;20267;-69
2023/01/23 04:22:56;;;;;;;;;;;0.20;99.90;;;;;;5126991;28;19920;-69
2023/01/23 04:25:23;;;;;;;;;;;0.20;99.90;;;;;;5127749;28;19928;-71
2023/01/23 04:27:49;;;;;;;;;;;0.30;99.90;;;;;;5127159;28;19958;-69
2023/01/23 04:30:16;;;;;;;;;;;0.20;99.90;;;;;;5126886;28;19988;-69
2023/01/23 04:32:43;;;;;;;;;;;0.30;99.90;;;;;;5127777;28;19951;-68
2023/01/23 04:35:09;;;;;;;;;;;0.20;99.90;;;;;;5127299;28;19962;-69
2023/01/23 04:37:36;;;;;;;;;;;0.20;99.90;;;;;;5126645;28;19919;-69
2023/01/23 04:40:04;;;;;;;;;;;0.30;99.90;;;;;;5127530;28;19947;-69
2023/01/23 04:42:31;;;;;;;;;;;0.20;99.90;;;;;;5126939;28;19927;-69
2023/01/23 04:44:58;;;;;;;;;;;0.30;99.90;;;;;;5127594;28;19947;-69
2023/01/23 04:47:24;;;;;;;;;;;0.30;99.90;;;;;;5126694;28;19927;-69
2023/01/23 04:49:51;;;;;;;;;;;0.30;99.90;;;;;;5127127;28;20257;-69
2023/01/23 04:52:17;;;;;;;;;;;0.30;99.90;;;;;;5126825;28;19994;-69
2023/01/23 04:54:44;;;;;;;;;;;0.30;99.90;;;;;;5126986;28;19923;-69
2023/01/23 04:57:12;;;;;;;;;;;0.20;99.90;;;;;;5126520;28;19986;-69
2023/01/23 04:59:38;;;;;;;;;;;0.20;99.90;;;;;;5127307;28;19919;-69
2023/01/23 05:02:05;;;;;;;;;;;0.20;99.90;;;;;;5126300;28;20275;-69
2023/01/23 05:04:32;;;;;;;;;;;0.30;99.90;;;;;;5123255;28;19943;-69
2023/01/23 05:06:58;;;;;;;;;;;0.30;99.90;;;;;;5118352;28;19988;-69
2023/01/23 05:09:25;;;;;;;;;;;0.30;99.90;;;;;;5122614;28;20242;-69
2023/01/23 05:11:51;;;;;;;;;;;0.20;99.90;;;;;;5114871;28;19991;-69
2023/01/23 05:14:20;;;;;;;;;;;0.20;99.90;;;;;;5106198;28;20271;-70
2023/01/23 05:16:47;;;;;;;;;;;0.30;99.90;;;;;;5105466;28;19920;-70
2023/01/23 05:19:14;;;;;;;;;;;0.20;99.90;;;;;;5106254;28;19987;-69
2023/01/23 05:21:46;;;;;;;;;;;0.30;99.90;;;;;;5108128;28;20175;-69
2023/01/23 05:24:13;;;;;;;;;;;0.30;99.90;;;;;;5115807;28;19920;-69
2023/01/23 05:26:40;;;;;;;;;;;0.30;99.90;;;;;;5106880;28;19987;-68
2023/01/23 05:29:06;;;;;;;;;;;0.20;99.90;;;;;;5107916;28;20119;-69
2023/01/23 05:31:34;;;;;;;;;;;0.20;99.90;;;;;;5105821;28;20228;-69
2023/01/23 05:34:02;;;;;;;;;;;0.20;99.90;;;;;;5104981;28;19930;-69
2023/01/23 05:36:28;;;;;;;;;;;0.20;99.90;;;;;;5105351;28;19997;-69
2023/01/23 05:38:55;;;;;;;;;;;0.20;99.90;;;;;;5112130;28;20162;-69
2023/01/23 05:41:22;;;;;;;;;;;0.20;99.90;;;;;;5126177;28;19991;-68
2023/01/23 05:43:49;;;;;;;;;;;0.30;99.90;;;;;;5114665;28;20179;-68
2023/01/23 05:46:15;;;;;;;;;;;0.30;99.90;;;;;;5104972;28;19920;-68
2023/01/23 05:48:43;;;;;;;;;;;0.30;99.90;;;;;;5105722;28;19983;-68
2023/01/23 05:51:10;;;;;;;;;;;0.30;99.90;;;;;;5105660;28;20115;-68
2023/01/23 05:53:36;;;;;;;;;;;0.20;99.90;;;;;;5105702;28;19983;-68
2023/01/23 05:56:05;;;;;;;;;;;0.20;99.90;;;;;;5110544;28;19944;-68
2023/01/23 05:58:31;;;;;;;;;;;0.10;99.90;;;;;;5125707;28;19983;-68
2023/01/23 06:00:58;;;;;;;;;;;0.10;99.90;;;;;;5125686;28;19951;-68
2023/01/23 06:03:25;;;;;;;;;;;0.10;99.90;;;;;;5125255;28;19994;-68
2023/01/23 06:05:53;;;;;;;;;;;0.10;99.90;;;;;;5111813;28;19951;-67
2023/01/23 06:08:19;;;;;;;;;;;0.10;99.90;;;;;;5105097;28;19927;-68
2023/01/23 06:10:47;;;;;;;;;;;0.10;99.90;;;;;;5103505;28;19935;-69
2023/01/23 06:13:14;;;;;;;;;;;0.10;99.90;;;;;;5105102;28;19958;-68
2023/01/23 06:15:40;;;;;;;;;;;0.10;99.90;;;;;;5104921;28;20084;-69
2023/01/23 06:18:07;;;;;;;;;;;0.10;99.90;;;;;;5104578;28;20228;-69
2023/01/23 06:20:34;;;;;;;;;;;0.10;99.90;;;;;;5105219;28;19992;-68
2023/01/23 06:23:01;;;;;;;;;;;0.10;99.90;;;;;;5104724;28;19991;-68
2023/01/23 06:25:28;;;;;;;;;;;0.20;99.90;;;;;;5104783;28;19920;-68
2023/01/23 06:27:55;;;;;;;;;;;0.20;99.90;;;;;;5115096;28;19988;-69
2023/01/23 06:30:21;;;;;;;;;;;0.10;99.90;;;;;;5105059;28;20164;-69
2023/01/23 06:32:48;;;;;;;;;;;0.10;99.90;;;;;;5104568;28;19926;-68
2023/01/23 06:35:15;;;;;;;;;;;0.20;99.90;;;;;;5107525;28;19994;-69
2023/01/23 06:37:41;;;;;;;;;;;0.10;99.90;;;;;;5124663;28;19992;-68
2023/01/23 06:40:12;;;;;;;;;;;0.10;99.90;;;;;;5124823;28;19987;-68
2023/01/23 06:42:38;;;;;;;;;;;0.10;99.90;;;;;;5124653;28;19927;-69
2023/01/23 06:45:07;;;;;;;;;;;0.10;99.90;;;;;;5124127;28;20103;-70
2023/01/23 06:47:33;;;;;;;;;;;0.10;99.90;;;;;;5124126;28;19982;-69
2023/01/23 06:50:00;;;;;;;;;;;0.20;99.90;;;;;;5124766;28;19961;-69
2023/01/23 06:52:27;;;;;;;;;;;0.10;99.90;;;;;;5124835;28;20138;-70
2023/01/23 06:54:54;;;;;;;;;;;0.20;99.90;;;;;;5124076;28;19920;-69
2023/01/23 06:57:22;;;;;;;;;;;0.10;99.90;;;;;;5123555;28;19927;-69
2023/01/23 06:59:49;;;;;;;;;;;0.10;99.90;;;;;;5115820;28;19920;-69
2023/01/23 07:02:15;;;;;;;;;;;0.10;99.90;;;;;;5111517;28;19946;-69
2023/01/23 07:04:42;;;;;;;;;;;0.10;99.90;;;;;;5123953;28;19974;-68
2023/01/23 07:07:08;;;;;;;;;;;0.10;99.90;;;;;;5123765;28;19926;-69
2023/01/23 07:09:35;;;;;;;;;;;0.10;99.90;;;;;;5124479;28;19926;-69
2023/01/23 07:12:02;;;;;;;;;;;0.10;99.90;;;;;;5124454;28;19987;-69
2023/01/23 07:14:29;;;;;;;;;;;0.10;99.90;;;;;;5124355;28;19979;-69
2023/01/23 07:16:56;;;;;;;;;;;0.10;99.90;;;;;;5123130;28;19966;-69
2023/01/23 07:19:23;;;;;;;;;;;0.10;99.90;;;;;;5124408;28;19963;-69
2023/01/23 07:21:49;;;;;;;;;;;0.10;99.90;;;;;;5124506;28;19983;-69
2023/01/23 07:24:16;;;;;;;;;;;0.10;99.90;;;;;;5124086;28;20177;-70
2023/01/23 07:26:43;;;;;;;;;;;0.10;99.90;;;;;;5123421;28;19939;-69
2023/01/23 07:29:09;;;;;;;;;;;0.00;99.90;;;;;;5108366;28;19951;-69
2023/01/23 07:31:39;;;;;;;;;;;0.00;99.90;;;;;;5106568;28;19951;-69
2023/01/23 07:34:06;;;;;;;;;;;0.10;99.90;;;;;;5124293;28;19986;-68
2023/01/23 07:36:32;;;;;;;;;;;0.10;99.90;;;;;;5123581;28;19951;-69
2023/01/23 07:38:59;;;;;;;;;;;0.10;99.90;;;;;;5123840;28;20421;-69
2023/01/23 07:41:26;;;;;;;;;;;0.10;99.90;;;;;;5124061;28;19959;-68
2023/01/23 07:43:52;;;;;;;;;;;0.10;99.90;;;;;;5124004;28;19970;-68
2023/01/23 07:46:19;;;;;;;;;;;0.10;99.90;;;;;;5123359;28;19920;-70
2023/01/23 07:48:47;;;;;;;;;;;0.10;99.90;;;;;;5123872;28;20100;-68
2023/01/23 07:51:14;;;;;;;;;;;0.10;99.90;;;;;;5124134;28;20168;-69
2023/01/23 07:53:40;;;;;;;;;;;0.10;99.90;;;;;;5126000;28;19923;-69
2023/01/23 07:56:07;;;;;;;;;;;0.10;99.90;;;;;;5127303;28;19986;-69
2023/01/23 07:58:34;;;;;;;;;;;0.10;99.90;;;;;;5120699;28;19926;-68
2023/01/23 08:01:06;;;;;;;;;;;0.10;99.90;;;;;;5128262;28;19982;-69
2023/01/23 08:03:33;;;;;;;;;;;0.10;99.90;;;;;;5120819;28;19955;-70
2023/01/23 08:06:01;;;;;;;;;;;0.10;99.90;;;;;;5127751;28;19962;-71
2023/01/23 08:08:28;;;;;;;;;;;0.10;99.90;;;;;;5127453;28;19926;-69
2023/01/23 08:10:55;;;;;;;;;;;0.10;99.90;;;;;;5124437;28;19919;-68
2023/01/23 08:13:22;;;;;;;;;;;0.10;99.90;;;;;;5126857;28;20544;-69
2023/01/23 08:15:48;;;;;;;;;;;0.10;99.90;;;;;;5107632;28;19920;-69
2023/01/23 08:18:15;;;;;;;;;;;0.10;99.90;;;;;;5106918;28;20179;-69
2023/01/23 08:20:42;;;;;;;;;;;0.10;99.90;;;;;;5107472;28;19956;-69
2023/01/23 08:23:09;;;;;;;;;;;0.10;99.90;;;;;;5106892;28;19963;-68
2023/01/23 08:25:37;;;;;;;;;;;0.20;99.90;;;;;;5106923;28;20172;-69
2023/01/23 08:28:04;;;;;;;;;;;0.20;99.90;;;;;;5111188;28;19986;-69
2023/01/23 08:30:34;;;;;;;;;;;0.20;99.90;;;;;;5126411;28;19920;-69
2023/01/23 08:33:03;;;;;;;;;;;0.20;99.90;;;;;;5127284;28;19990;-69
2023/01/23 08:35:30;;;;;;;;;;;0.20;99.90;;;;;;5127265;28;19927;-68
2023/01/23 08:37:56;;;;;;;;;;;0.20;99.90;;;;;;5110988;28;19983;-69
2023/01/23 08:40:24;;;;;;;;;;;0.30;99.90;;;;;;5125453;28;19973;-69
2023/01/23 08:42:51;;;;;;;;;;;0.30;99.90;;;;;;5126902;28;19930;-69
2023/01/23 08:45:17;;;;;;;;;;;0.20;99.90;;;;;;5118100;28;19979;-69
2023/01/23 08:47:44;;;;;;;;;;;0.20;99.90;;;;;;5113616;28;20306;-69
2023/01/23 08:50:11;;;;;;;;;;;0.20;99.90;;;;;;5127307;28;20279;-69
2023/01/23 08:52:38;;;;;;;;;;;0.20;99.90;;;;;;5124687;28;19951;-68
2023/01/23 08:55:05;;;;;;;;;;;0.10;99.90;;;;;;5106617;28;19994;-69
2023/01/23 08:57:33;;;;;;;;;;;0.20;99.90;;;;;;5105993;28;19920;-69
2023/01/23 08:59:59;;;;;;;;;;;0.20;99.90;;;;;;5112744;28;19923;-68
2023/01/23 09:02:26;;;;;;;;;;;0.10;99.90;;;;;;5126964;28;19982;-68
2023/01/23 09:04:53;;;;;;;;;;;0.20;99.90;;;;;;5120522;28;20011;-68
2023/01/23 09:07:19;;;;;;;;;;;0.20;99.90;;;;;;5126324;28;19983;-68
2023/01/23 09:09:46;;;;;;;;;;;0.20;99.90;;;;;;5127054;28;19979;-69
2023/01/23 09:12:12;;;;;;;;;;;0.20;99.90;;;;;;5126629;28;19962;-69
2023/01/23 09:14:40;;;;;;;;;;;0.30;99.90;;;;;;5116625;28;19927;-71
2023/01/23 09:17:07;;;;;;;;;;;0.30;99.90;;;;;;5106113;28;19920;-69
2023/01/23 09:19:34;;;;;;;;;;;0.40;99.90;;;;;;5115264;28;19920;-69
2023/01/23 09:22:00;;;;;;;;;;;0.40;99.90;;;;;;5126464;28;20215;-69
2023/01/23 09:24:27;;;;;;;;;;;0.50;99.90;;;;;;5109348;28;19963;-69
2023/01/23 09:26:54;;;;;;;;;;;0.50;99.90;;;;;;5107212;28;19920;-69
2023/01/23 09:29:20;;;;;;;;;;;0.50;99.90;;;;;;5105138;28;19987;-68
2023/01/23 09:31:49;;;;;;;;;;;0.60;99.90;;;;;;5107357;28;19983;-68
2023/01/23 09:34:16;;;;;;;;;;;0.60;99.90;;;;;;5105018;28;19927;-69
2023/01/23 09:36:42;;;;;;;;;;;0.60;99.90;;;;;;5113566;28;19990;-68
2023/01/23 09:39:09;;;;;;;;;;;0.60;99.90;;;;;;5116804;28;19954;-68
2023/01/23 09:41:43;;;;;;;;;;;0.50;99.90;;;;;;5109885;28;19990;-69
2023/01/23 09:44:12;;;;;;;;;;;0.50;99.90;;;;;;5124995;28;19947;-69
2023/01/23 09:46:41;;;;;;;;;;;0.50;99.90;;;;;;5124741;28;19958;-68
2023/01/23 09:49:11;;;;;;;;;;;0.50;99.90;;;;;;5125089;28;19926;-69
2023/01/23 09:51:44;;;;;;;;;;;0.50;99.90;;;;;;5122346;28;19942;-69
2023/01/23 09:54:17;;;;;;;;;;;0.50;99.90;;;;;;5110465;28;19920;-69
2023/01/23 09:56:44;;;;;;;;;;;0.50;99.90;;;;;;5123333;28;20387;-69
2023/01/23 09:59:13;;;;;;;;;;;0.50;99.90;;;;;;5124416;28;19979;-69
2023/01/23 10:01:40;;;;;;;;;;;0.60;99.90;;;;;;5124178;28;19926;-68
2023/01/23 10:04:10;;;;;;;;;;;0.60;99.90;;;;;;5108608;28;19928;-69
2023/01/23 10:06:47;;;;;;;;;;;0.60;99.90;;;;;;5120211;28;19962;-69
2023/01/23 10:09:27;;;;;;;;;;;0.70;99.90;;;;;;5124811;28;19919;-69
2023/01/23 10:11:58;;;;;;;;;;;0.70;99.90;;;;;;5124948;28;19924;-69
2023/01/23 10:14:42;;;;;;;;;;;0.70;99.90;;;;;;5122610;28;19987;-69
2023/01/23 10:17:13;;;;;;;;;;;0.70;99.90;;;;;;5102153;28;19987;-68
2023/01/23 10:19:44;;;;;;;;;;;0.80;99.90;;;;;;5104332;28;19920;-69
2023/01/23 10:24:55;;;;;;;;;;;0.90;99.90;;;;;;5121513;27;19936;-68
2023/01/23 10:27:22;;;;;;;;;;;0.90;99.90;;;;;;5121046;28;19942;-69
2023/01/23 10:29:51;;;;;;;;;;;0.90;99.90;;;;;;5121295;28;19992;-69
2023/01/23 10:32:22;;;;;;;;;;;0.90;99.90;;;;;;5121515;28;20222;-68
2023/01/23 10:34:52;;;;;;;;;;;1.00;99.90;;;;;;5121068;28;19958;-68
2023/01/23 10:37:21;;;;;;;;;;;1.00;99.90;;;;;;5120788;28;19987;-68
2023/01/23 10:39:50;;;;;;;;;;;1.00;99.90;;;;;;5121437;28;19952;-68
2023/01/23 10:42:21;;;;;;;;;;;1.00;99.90;;;;;;5116690;28;19928;-69
2023/01/23 10:44:48;;;;;;;;;;;0.90;99.90;;;;;;5100854;28;19921;-69
2023/01/23 10:47:19;;;;;;;;;;;0.90;99.90;;;;;;5100297;28;19997;-69
2023/01/23 10:49:46;;;;;;;;;;;1.00;99.90;;;;;;5101417;28;19920;-68
2023/01/23 10:52:29;;;;;;;;;;;0.90;99.90;;;;;;5100013;28;19987;-69
2023/01/23 10:54:55;;;;;;;;;;;1.00;99.90;;;;;;5100486;28;19928;-69
2023/01/23 10:57:25;;;;;;;;;;;1.00;99.90;;;;;;5100100;28;19987;-69
2023/01/23 10:59:54;;;;;;;;;;;1.10;99.90;;;;;;5100666;28;19921;-69
2023/01/23 11:02:26;;;;;;;;;;;1.10;99.90;;;;;;5100037;28;20258;-69
2023/01/23 11:04:52;;;;;;;;;;;1.20;99.90;;;;;;5111766;28;20015;-68
2023/01/23 11:07:20;;;;;;;;;;;1.20;99.90;;;;;;5120061;28;20259;-69
2023/01/23 11:09:49;;;;;;;;;;;1.20;99.90;;;;;;5098822;28;20007;-69
2023/01/23 11:12:17;;;;;;;;;;;1.20;99.90;;;;;;5100027;28;20167;-68
2023/01/23 11:14:45;;;;;;;;;;;1.20;99.90;;;;;;5100044;28;19924;-68
2023/01/23 11:17:17;;;;;;;;;;;1.20;99.90;;;;;;5099751;28;19958;-68
2023/01/23 11:19:45;;;;;;;;;;;1.30;99.90;;;;;;5099963;28;19927;-68
2023/01/23 11:22:23;;;;;;;;;;;1.30;99.90;;;;;;5110428;28;20247;-68
2023/01/23 11:24:50;;;;;;;;;;;1.30;99.90;;;;;;5119408;28;19927;-68
2023/01/23 11:27:19;;;;;;;;;;;1.30;99.90;;;;;;5119683;28;19979;-68
2023/01/23 11:29:53;;;;;;;;;;;1.30;99.90;;;;;;5119626;28;20234;-68
2023/01/23 11:32:20;;;;;;;;;;;1.30;99.90;;;;;;5120397;28;19920;-68
2023/01/23 11:34:49;;;;;;;;;;;1.40;99.90;;;;;;5114246;28;20093;-68
2023/01/23 11:37:18;;;;;;;;;;;1.40;99.90;;;;;;5106006;28;20208;-68
2023/01/23 11:39:48;;;;;;;;;;;1.40;99.90;;;;;;5106296;28;19924;-69
2023/01/23 11:42:15;;;;;;;;;;;1.40;99.90;;;;;;5106469;28;20098;-68
2023/01/23 11:44:42;;;;;;;;;;;1.50;99.90;;;;;;5106183;28;19978;-68
2023/01/23 11:47:22;;;;;;;;;;;1.50;99.90;;;;;;5102339;28;19979;-68
2023/01/23 11:49:59;;;;;;;;;;;1.50;99.90;;;;;;5105718;28;20231;-68
2023/01/23 11:52:31;;;;;;;;;;;1.60;99.90;;;;;;5106083;28;19927;-72
2023/01/23 11:55:08;;;;;;;;;;;1.60;99.90;;;;;;5106200;28;19920;-68
2023/01/23 11:57:39;;;;;;;;;;;1.70;99.90;;;;;;5100818;28;19920;-68
2023/01/23 12:00:16;;;;;;;;;;;1.70;99.90;;;;;;5097629;28;19951;-69
2023/01/23 12:02:56;;;;;;;;;;;1.70;99.90;;;;;;5105493;28;20003;-69
2023/01/23 12:05:33;;;;;;;;;;;1.80;99.90;;;;;;5085872;28;19962;-68
2023/01/23 12:08:08;;;;;;;;;;;1.80;99.90;;;;;;5105038;28;19983;-67
2023/01/23 12:10:37;;;;;;;;;;;1.80;99.90;;;;;;5105974;28;19926;-69
2023/01/23 12:13:09;;;;;;;;;;;1.80;99.90;;;;;;5105627;28;19920;-68
2023/01/23 12:15:40;;;;;;;;;;;1.70;99.90;;;;;;5091010;28;19979;-68
2023/01/23 12:18:15;;;;;;;;;;;1.70;99.90;;;;;;5085002;28;19951;-68
2023/01/23 12:20:48;;;;;;;;;;;1.70;99.90;;;;;;5091939;28;19951;-68
2023/01/23 12:23:20;;;;;;;;;;;1.70;99.90;;;;;;5112569;28;19920;-68
2023/01/23 12:25:50;;;;;;;;;;;1.70;99.90;;;;;;5125091;28;20283;-69
2023/01/23 12:28:24;;;;;;;;;;;1.60;99.90;;;;;;5125390;28;19926;-68
2023/01/23 12:30:59;;;;;;;;;;;1.60;99.90;;;;;;5126088;28;20164;-68
2023/01/23 12:33:34;;;;;;;;;;;1.50;99.90;;;;;;5124854;28;19927;-68
2023/01/23 12:36:08;;;;;;;;;;;1.60;99.90;;;;;;5105343;28;19983;-69
2023/01/23 12:38:41;;;;;;;;;;;1.60;99.90;;;;;;5105861;28;20145;-68
2023/01/23 12:41:11;;;;;;;;;;;1.60;99.90;;;;;;5121736;28;19926;-68
2023/01/23 12:43:44;;;;;;;;;;;1.60;99.90;;;;;;5125641;28;19986;-68
2023/01/23 12:46:11;;;;;;;;;;;1.60;99.90;;;;;;5124088;28;20097;-68
2023/01/23 12:48:42;;;;;;;;;;;1.70;99.90;;;;;;5125606;28;19926;-68
2023/01/23 12:51:12;;;;;;;;;;;1.80;99.90;;;;;;5104179;28;19987;-71
2023/01/23 12:53:41;;;;;;;;;;;1.80;99.90;;;;;;5105093;28;20140;-68
2023/01/23 12:56:10;;;;;;;;;;;1.90;99.90;;;;;;5104242;28;19955;-69
2023/01/23 12:58:40;;;;;;;;;;;1.80;99.90;;;;;;5105084;28;19979;-68
2023/01/23 13:01:19;;;;;;;;;;;1.80;99.90;;;;;;5104690;28;20226;-68
2023/01/23 13:03:53;;;;;;;;;;;1.80;99.90;;;;;;5104903;28;19963;-68
2023/01/23 13:06:37;;;;;;;;;;;1.70;99.90;;;;;;5103971;28;19966;-68
2023/01/23 13:09:07;;;;;;;;;;;1.70;99.90;;;;;;5083662;28;20226;-68
2023/01/23 13:11:43;;;;;;;;;;;1.70;99.90;;;;;;5104992;28;19924;-69
2023/01/23 13:14:17;;;;;;;;;;;1.70;99.90;;;;;;5104399;28;20093;-68
2023/01/23 13:16:45;;;;;;;;;;;1.80;99.90;;;;;;5103612;28;20159;-68
2023/01/23 13:22:11;;;;;;;;;;;1.80;99.90;;;;;;5104518;28;19955;-68
2023/01/23 13:27:46;;;;;;;;;;;1.90;99.90;;;;;;5103760;28;19923;-68
2023/01/23 13:30:31;;;;;;;;;;;1.80;99.90;;;;;;5104100;28;19978;-68
2023/01/23 13:33:02;;;;;;;;;;;1.80;99.90;;;;;;5104509;28;20328;-68
2023/01/23 13:35:48;;;;;;;;;;;1.80;99.90;;;;;;5104094;28;19922;-68
2023/01/23 13:38:36;;;;;;;;;;;1.80;99.90;;;;;;5103948;28;19962;-68
2023/01/23 13:41:21;;;;;;;;;;;1.80;99.90;;;;;;5104212;28;19927;-69
2023/01/23 13:43:52;;;;;;;;;;;1.80;99.90;;;;;;5104233;28;19920;-68
2023/01/23 13:46:24;;;;;;;;;;;1.70;99.90;;;;;;5103663;28;19924;-68
2023/01/23 13:51:39;;;;;;;;;;;1.70;99.90;;;;;;5102661;28;19923;-68
2023/01/23 13:56:57;;;;;;;;;;;1.70;99.90;;;;;;5103402;28;20194;-69
2023/01/23 13:59:27;;;;;;;;;;;1.80;99.90;;;;;;5111213;28;19919;-69
2023/01/23 14:10:15;;;;;;;;;;;1.90;99.90;;;;;;5124219;28;19923;-69
2023/01/23 14:12:41;;;;;;;;;;;2.00;99.90;;;;;;5124277;28;19928;-69
2023/01/23 14:18:03;;;;;;;;;;;2.00;99.90;;;;;;5118344;28;19926;-70
2023/01/23 14:20:31;;;;;;;;;;;2.00;99.90;;;;;;5124180;28;19919;-68
2023/01/23 14:22:58;;;;;;;;;;;2.00;99.90;;;;;;5122048;28;19926;-67
2023/01/23 14:25:26;;;;;;;;;;;2.00;99.90;;;;;;5123778;28;19920;-68
2023/01/23 14:28:02;;;;;;;;;;;2.00;99.90;;;;;;5122804;28;19990;-68
2023/01/23 14:30:30;;;;;;;;;;;1.90;99.90;;;;;;5120761;28;20173;-69
2023/01/23 14:32:58;;;;;;;;;;;2.00;99.90;;;;;;5124016;28;19928;-68
2023/01/23 14:35:25;;;;;;;;;;;2.10;99.90;;;;;;5123860;28;20257;-69
2023/01/23 14:37:53;;;;;;;;;;;2.10;99.90;;;;;;5122979;28;19951;-68
2023/01/23 14:40:20;;;;;;;;;;;2.10;99.90;;;;;;5123915;28;19991;-68
2023/01/23 14:42:53;;;;;;;;;;;2.10;99.90;;;;;;5123744;28;19986;-68
2023/01/23 14:45:19;;;;;;;;;;;2.10;99.90;;;;;;5123724;28;19958;-68
2023/01/23 14:47:46;;;;;;;;;;;2.10;99.90;;;;;;5123268;28;19990;-69
2023/01/23 14:50:16;;;;;;;;;;;2.20;99.90;;;;;;5123853;28;19926;-69
2023/01/23 14:52:43;;;;;;;;;;;2.10;99.90;;;;;;5123855;28;19920;-68
2023/01/23 14:55:20;;;;;;;;;;;2.10;99.90;;;;;;5123261;28;19986;-68
2023/01/23 14:57:47;;;;;;;;;;;2.10;99.90;;;;;;5123220;28;19926;-68
2023/01/23 15:00:16;;;;;;;;;;;2.10;99.90;;;;;;5123750;28;19941;-68
2023/01/23 15:02:45;;;;;;;;;;;2.10;99.90;;;;;;5123530;28;19926;-68
2023/01/23 15:05:19;;;;;;;;;;;2.10;99.90;;;;;;5108822;28;19919;-68
2023/01/23 15:07:47;;;;;;;;;;;2.10;99.90;;;;;;5102916;28;20007;-70
2023/01/23 15:10:15;;;;;;;;;;;2.00;99.90;;;;;;5104900;28;19947;-69
2023/01/23 15:12:47;;;;;;;;;;;2.00;99.90;;;;;;5107416;28;19928;-69